Time;durP1;ratioP1;P1;durP2;ratioP2;P2;SDS_P1;SDS_P2;PMS_P1;PMS_P2;Temp;Humidity;BMP_temperature;BMP_pressure;BME280_temperature;BME280_humidity;BME280_pressure;Samples;Min_cycle;Max_cycle;Signal;HPM_P1;HPM_P2
2022/09/03 00:00:57;;;;;;;1.75;1.20;;;15.90;85.50;;;;;;4997489;28;20053;-74
2022/09/03 00:03:37;;;;;;;2.00;1.05;;;16.00;85.70;;;;;;5014896;28;20042;-74
2022/09/03 00:06:17;;;;;;;1.60;1.20;;;15.90;86.10;;;;;;5014849;28;20078;-74
2022/09/03 00:08:53;;;;;;;2.40;1.17;;;15.90;86.30;;;;;;5015108;28;20133;-74
2022/09/03 00:11:31;;;;;;;4.00;1.27;;;15.80;86.00;;;;;;4997949;28;20064;-73
2022/09/03 00:14:11;;;;;;;3.00;1.15;;;15.80;86.10;;;;;;5014682;28;20037;-74
2022/09/03 00:16:48;;;;;;;3.95;1.40;;;15.80;86.30;;;;;;5014530;28;20164;-74
2022/09/03 00:19:23;;;;;;;2.70;1.50;;;15.80;86.20;;;;;;5014503;28;20045;-74
2022/09/03 00:21:56;;;;;;;1.40;1.20;;;15.80;86.50;;;;;;5014219;28;20151;-74
2022/09/03 00:24:24;;;;;;;1.35;1.20;;;15.70;86.80;;;;;;5014413;28;20050;-74
2022/09/03 00:26:54;;;;;;;3.97;1.30;;;15.70;87.10;;;;;;5014319;28;20054;-74
2022/09/03 00:29:47;;;;;;;3.22;1.17;;;15.70;87.30;;;;;;5014068;28;20104;-74
2022/09/03 00:32:18;;;;;;;1.13;0.90;;;15.60;88.30;;;;;;5014300;28;20050;-74
2022/09/03 00:34:51;;;;;;;2.97;1.23;;;15.60;88.40;;;;;;5014358;28;20046;-73
2022/09/03 00:37:17;;;;;;;2.65;1.27;;;15.60;88.40;;;;;;5014247;28;20117;-73
2022/09/03 00:39:43;;;;;;;4.88;1.20;;;15.60;88.30;;;;;;5014618;28;20085;-74
2022/09/03 00:42:27;;;;;;;6.38;1.50;;;15.50;89.00;;;;;;4996719;28;20477;-74
2022/09/03 00:44:56;;;;;;;4.05;1.45;;;15.50;89.10;;;;;;5014017;28;20049;-74
2022/09/03 00:47:56;;;;;;;2.10;1.33;;;15.50;89.50;;;;;;5013672;28;20119;-74
2022/09/03 00:50:59;;;;;;;3.33;1.50;;;15.40;89.90;;;;;;4979457;28;20057;-74
2022/09/03 00:53:43;;;;;;;2.10;1.50;;;15.40;90.00;;;;;;5013907;28;20049;-74
2022/09/03 00:56:35;;;;;;;1.45;1.30;;;15.30;89.90;;;;;;5013798;28;20054;-74
2022/09/03 00:59:29;;;;;;;4.80;1.52;;;15.30;90.00;;;;;;4996531;28;20140;-74
2022/09/03 01:02:01;;;;;;;2.67;1.17;;;15.20;89.90;;;;;;5014319;28;20091;-74
2022/09/03 01:04:32;;;;;;;3.17;1.50;;;15.20;90.10;;;;;;5014605;28;20060;-73
2022/09/03 01:07:24;;;;;;;2.47;1.52;;;15.20;90.20;;;;;;5013717;28;20054;-75
2022/09/03 01:10:03;;;;;;;1.13;1.05;;;15.20;90.60;;;;;;5013955;28;20045;-74
2022/09/03 01:12:50;;;;;;;4.28;1.52;;;15.10;90.90;;;;;;5013537;28;20105;-74
2022/09/03 01:15:58;;;;;;;4.13;0.95;;;15.10;91.20;;;;;;5013912;28;20049;-74
2022/09/03 01:18:37;;;;;;;2.97;1.30;;;15.00;91.10;;;;;;5012337;28;20124;-74
2022/09/03 01:21:35;;;;;;;1.83;1.10;;;14.90;91.20;;;;;;5011863;28;20204;-74
2022/09/03 01:24:17;;;;;;;1.25;1.15;;;14.90;91.40;;;;;;5013400;28;20129;-74
2022/09/03 01:27:00;;;;;;;1.55;1.45;;;14.90;91.40;;;;;;5013719;28;20045;-74
2022/09/03 01:29:28;;;;;;;1.45;1.35;;;14.80;91.50;;;;;;5013589;28;20041;-74
2022/09/03 01:32:16;;;;;;;1.75;1.27;;;14.80;91.50;;;;;;5013216;28;20046;-74
2022/09/03 01:34:54;;;;;;;6.43;1.40;;;14.80;91.60;;;;;;5013822;28;20045;-74
2022/09/03 01:37:28;;;;;;;2.47;1.60;;;14.70;91.70;;;;;;5013570;28;20086;-73
2022/09/03 01:40:20;;;;;;;2.88;1.50;;;14.70;91.80;;;;;;5013458;28;20049;-74
2022/09/03 01:43:08;;;;;;;2.28;1.33;;;14.70;92.00;;;;;;5013102;28;20053;-74
2022/09/03 01:45:47;;;;;;;1.63;1.20;;;14.60;92.20;;;;;;5013466;28;20503;-73
2022/09/03 01:48:51;;;;;;;1.75;1.38;;;14.60;92.10;;;;;;4995758;28;20073;-74
2022/09/03 01:51:19;;;;;;;;;;;14.60;92.20;;;;;;4996474;28;20049;-74
2022/09/03 01:53:51;;;;;;;0.90;0.90;;;14.50;92.30;;;;;;5013180;28;19921;-73
2022/09/03 01:56:56;;;;;;;1.33;1.15;;;14.50;92.20;;;;;;5012871;28;20183;-74
2022/09/03 02:00:05;;;;;;;1.95;1.15;;;14.50;92.50;;;;;;5013324;28;20054;-74
2022/09/03 02:02:32;;;;;;;1.20;1.20;;;14.40;92.90;;;;;;5013246;28;20112;-73
2022/09/03 02:05:08;;;;;;;2.78;1.48;;;14.40;92.90;;;;;;4995665;28;20052;-74
2022/09/03 02:08:06;;;;;;;2.95;1.50;;;14.40;92.90;;;;;;5012900;28;20049;-73
2022/09/03 02:10:43;;;;;;;2.88;1.50;;;14.30;93.10;;;;;;5011908;28;20057;-74
2022/09/03 02:13:13;;;;;;;1.42;1.33;;;14.20;93.30;;;;;;5012756;28;20046;-75
2022/09/03 02:15:44;;;;;;;2.90;1.63;;;14.10;93.80;;;;;;5012811;28;20054;-73
2022/09/03 02:18:16;;;;;;;2.47;1.67;;;14.10;93.70;;;;;;5012890;28;20049;-74
2022/09/03 02:20:41;;;;;;;2.30;1.20;;;14.10;93.70;;;;;;5012846;28;20457;-74
2022/09/03 02:23:07;;;;;;;3.15;1.80;;;14.10;93.70;;;;;;5012554;28;20572;-74
2022/09/03 02:25:40;;;;;;;1.23;1.13;;;14.10;93.90;;;;;;5012814;28;20419;-73
2022/09/03 02:28:07;;;;;;;3.83;1.63;;;14.00;94.00;;;;;;4995809;28;20042;-74
2022/09/03 02:30:34;;;;;;;1.77;1.40;;;14.00;94.00;;;;;;4994947;28;20048;-73
2022/09/03 02:33:00;;;;;;;2.17;1.38;;;14.00;94.20;;;;;;5012469;28;20060;-73
2022/09/03 02:35:26;;;;;;;2.20;1.42;;;14.00;94.30;;;;;;4995736;28;20373;-73
2022/09/03 02:37:52;;;;;;;2.20;1.50;;;14.00;94.40;;;;;;5012554;28;20108;-73
2022/09/03 02:40:17;;;;;;;2.55;1.48;;;14.00;94.60;;;;;;5012369;28;20046;-74
2022/09/03 02:42:45;;;;;;;1.20;1.10;;;14.00;94.80;;;;;;5012531;28;20473;-73
2022/09/03 02:45:28;;;;;;;1.73;1.40;;;14.00;94.80;;;;;;5012391;28;20057;-74
2022/09/03 02:47:56;;;;;;;3.53;1.60;;;14.10;94.80;;;;;;5012392;28;20054;-75
2022/09/03 02:50:23;;;;;;;1.67;1.50;;;14.10;94.70;;;;;;5012348;28;20042;-73
2022/09/03 02:52:49;;;;;;;2.75;1.60;;;14.10;94.60;;;;;;5012146;28;20050;-73
2022/09/03 02:55:16;;;;;;;2.00;1.58;;;14.20;94.60;;;;;;5012112;28;20054;-74
2022/09/03 02:57:42;;;;;;;1.33;1.10;;;14.10;94.80;;;;;;5012137;28;20073;-74
2022/09/03 03:00:08;;;;;;;1.95;1.40;;;14.10;94.70;;;;;;4994466;28;20362;-74
2022/09/03 03:02:34;;;;;;;1.58;1.45;;;14.20;94.80;;;;;;4995096;28;20046;-74
2022/09/03 03:05:00;;;;;;;1.50;1.38;;;14.20;94.80;;;;;;5011610;28;20049;-73
2022/09/03 03:07:30;;;;;;;1.63;1.27;;;14.20;94.60;;;;;;4994838;28;20046;-73
2022/09/03 03:09:56;;;;;;;1.70;1.60;;;14.30;94.50;;;;;;5012186;28;20100;-74
2022/09/03 03:12:22;;;;;;;3.03;1.08;;;14.30;94.50;;;;;;5014556;28;20046;-74
2022/09/03 03:14:47;;;;;;;3.85;1.70;;;14.30;94.50;;;;;;5016106;28;20129;-74
2022/09/03 03:17:13;;;;;;;1.77;1.40;;;14.40;94.30;;;;;;5014217;28;20046;-74
2022/09/03 03:19:39;;;;;;;1.40;1.23;;;14.40;94.20;;;;;;5015696;28;20052;-74
2022/09/03 03:22:04;;;;;;;1.48;1.33;;;14.50;94.20;;;;;;5015661;28;20480;-73
2022/09/03 03:24:30;;;;;;;2.75;1.25;;;14.50;94.20;;;;;;5016156;28;20050;-74
2022/09/03 03:26:59;;;;;;;2.22;1.60;;;14.50;94.20;;;;;;5015567;28;20363;-74
2022/09/03 03:29:24;;;;;;;2.22;1.50;;;14.50;94.20;;;;;;5015110;28;20060;-73
2022/09/03 03:31:51;;;;;;;2.38;2.20;;;14.50;94.20;;;;;;5015234;28;20469;-73
2022/09/03 03:34:17;;;;;;;1.65;1.50;;;14.50;94.10;;;;;;5015363;28;20042;-73
2022/09/03 03:36:43;;;;;;;1.75;1.52;;;14.50;94.10;;;;;;5015575;28;20046;-74
2022/09/03 03:39:09;;;;;;;2.95;1.70;;;14.50;94.10;;;;;;4998140;28;20352;-74
2022/09/03 03:41:36;;;;;;;2.85;1.60;;;14.50;94.10;;;;;;5015222;28;20625;-73
2022/09/03 03:44:05;;;;;;;1.70;1.33;;;14.50;94.10;;;;;;5015348;28;20053;-73
2022/09/03 03:46:33;;;;;;;2.08;1.80;;;14.50;94.10;;;;;;5015002;28;20121;-73
2022/09/03 03:49:00;;;;;;;2.70;2.38;;;14.50;94.20;;;;;;5014883;28;20049;-73
2022/09/03 03:51:26;;;;;;;3.08;1.67;;;14.50;94.20;;;;;;5015087;28;20097;-74
2022/09/03 03:53:56;;;;;;;2.15;1.67;;;14.50;94.10;;;;;;5015147;28;20076;-74
2022/09/03 03:56:25;;;;;;;2.50;1.60;;;14.50;94.00;;;;;;5015369;28;20053;-75
2022/09/03 03:58:51;;;;;;;1.60;1.50;;;14.40;94.00;;;;;;5015394;28;20088;-74
2022/09/03 04:01:25;;;;;;;2.45;1.65;;;14.40;94.10;;;;;;5014897;28;20057;-75
2022/09/03 04:03:54;;;;;;;2.35;1.60;;;14.40;94.10;;;;;;4997731;28;20058;-75
2022/09/03 04:06:20;;;;;;;1.92;1.65;;;14.40;94.10;;;;;;5014745;28;20050;-74
2022/09/03 04:08:47;;;;;;;1.60;1.50;;;14.40;94.00;;;;;;4997425;28;20068;-74
2022/09/03 04:11:16;;;;;;;3.75;1.60;;;14.40;94.00;;;;;;5014654;28;20046;-74
2022/09/03 04:13:43;;;;;;;1.83;1.52;;;14.40;94.00;;;;;;5014708;28;20089;-74
2022/09/03 04:16:12;;;;;;;2.25;1.95;;;14.30;94.10;;;;;;5014338;28;20617;-74
2022/09/03 04:18:38;;;;;;;1.98;1.75;;;14.30;94.10;;;;;;5014816;28;20090;-74
2022/09/03 04:21:10;;;;;;;1.60;1.50;;;14.30;94.10;;;;;;5014223;28;20089;-74
2022/09/03 04:23:38;;;;;;;2.35;1.50;;;14.30;94.20;;;;;;5013454;28;20050;-75
2022/09/03 04:26:04;;;;;;;2.17;1.80;;;14.30;94.20;;;;;;5014375;28;20088;-74
2022/09/03 04:28:30;;;;;;;2.08;1.77;;;14.30;94.20;;;;;;5013087;28;20053;-75
2022/09/03 04:31:01;;;;;;;1.90;1.70;;;14.30;94.10;;;;;;5014217;28;20121;-73
2022/09/03 04:33:27;;;;;;;1.88;1.77;;;14.30;94.20;;;;;;5014243;28;20060;-73
2022/09/03 04:35:59;;;;;;;1.40;1.30;;;14.30;94.10;;;;;;5014308;28;20050;-73
2022/09/03 04:38:28;;;;;;;1.70;1.55;;;14.30;94.30;;;;;;4996971;28;20050;-73
2022/09/03 04:40:54;;;;;;;2.58;1.98;;;14.30;94.20;;;;;;5014147;28;20081;-73
2022/09/03 04:43:19;;;;;;;3.28;1.60;;;14.20;94.20;;;;;;5013550;28;20081;-73
2022/09/03 04:45:45;;;;;;;1.30;1.30;;;14.20;94.20;;;;;;5014325;28;20063;-73
2022/09/03 04:48:12;;;;;;;2.53;1.83;;;14.20;94.30;;;;;;4996587;28;20114;-73
2022/09/03 04:50:38;;;;;;;2.28;2.08;;;14.20;94.40;;;;;;4996408;28;20050;-73
2022/09/03 04:53:04;;;;;;;1.70;1.60;;;14.20;94.50;;;;;;4996747;28;20536;-73
2022/09/03 04:55:36;;;;;;;3.53;1.67;;;14.20;94.70;;;;;;5014188;28;20495;-73
2022/09/03 04:58:04;;;;;;;2.10;1.90;;;14.10;94.80;;;;;;5014216;28;20046;-73
2022/09/03 05:00:29;;;;;;;2.05;1.60;;;14.10;94.80;;;;;;5014177;28;20096;-73
2022/09/03 05:02:58;;;;;;;2.53;1.98;;;14.10;94.80;;;;;;5013903;28;20125;-73
2022/09/03 05:05:24;;;;;;;2.70;1.75;;;14.10;94.80;;;;;;5013640;28;20050;-73
2022/09/03 05:07:50;;;;;;;4.05;2.13;;;14.10;95.00;;;;;;5014128;28;20049;-73
2022/09/03 05:10:19;;;;;;;1.95;1.80;;;14.20;95.10;;;;;;5013694;28;20551;-73
2022/09/03 05:12:46;;;;;;;2.15;1.95;;;14.10;95.20;;;;;;5013698;28;20060;-73
2022/09/03 05:15:12;;;;;;;3.75;1.60;;;14.20;95.40;;;;;;5013879;28;20100;-73
2022/09/03 05:17:38;;;;;;;3.03;2.05;;;14.20;95.40;;;;;;5013518;28;20058;-73
2022/09/03 05:20:08;;;;;;;3.17;1.83;;;14.20;95.40;;;;;;5011879;28;20108;-73
2022/09/03 05:22:34;;;;;;;2.17;2.03;;;14.20;95.40;;;;;;4996175;28;20054;-73
2022/09/03 05:25:00;;;;;;;1.85;1.70;;;14.20;95.40;;;;;;5012183;28;20104;-74
2022/09/03 05:27:26;;;;;;;2.35;2.17;;;14.20;95.50;;;;;;5013671;28;20070;-73
2022/09/03 05:29:52;;;;;;;1.95;1.67;;;14.20;95.40;;;;;;5012345;28;20488;-73
2022/09/03 05:32:17;;;;;;;2.22;1.80;;;14.20;95.40;;;;;;5012801;28;20101;-72
2022/09/03 05:34:43;;;;;;;3.72;2.10;;;14.30;95.30;;;;;;4995804;28;20050;-73
2022/09/03 05:37:10;;;;;;;2.25;1.88;;;14.30;95.30;;;;;;5013099;28;20045;-73
2022/09/03 05:39:36;;;;;;;3.35;2.05;;;14.30;95.30;;;;;;5012979;28;20105;-73
2022/09/03 05:42:02;;;;;;;3.92;2.17;;;14.30;95.30;;;;;;5013074;28;20045;-72
2022/09/03 05:44:28;;;;;;;4.88;2.33;;;14.30;95.20;;;;;;5012685;28;20054;-73
2022/09/03 05:46:54;;;;;;;3.35;1.88;;;14.40;95.30;;;;;;5013041;28;20049;-73
2022/09/03 05:49:19;;;;;;;2.20;2.00;;;14.40;95.30;;;;;;5012428;28;20092;-74
2022/09/03 05:51:45;;;;;;;4.47;2.00;;;14.40;95.20;;;;;;5012593;28;20046;-73
2022/09/03 05:54:11;;;;;;;4.30;2.53;;;14.60;95.20;;;;;;5011711;28;20048;-74
2022/09/03 05:56:41;;;;;;;2.72;1.90;;;14.50;95.10;;;;;;5012940;28;20057;-74
2022/09/03 05:59:08;;;;;;;2.88;1.60;;;14.50;95.00;;;;;;4995427;28;20046;-74
2022/09/03 06:01:36;;;;;;;2.13;1.90;;;14.60;95.00;;;;;;5012588;28;20103;-73
2022/09/03 06:04:10;;;;;;;3.20;2.63;;;14.60;94.90;;;;;;5012515;28;20112;-74
2022/09/03 06:06:42;;;;;;;1.80;1.70;;;14.70;94.90;;;;;;5013014;28;20147;-74
2022/09/03 06:09:16;;;;;;;8.35;2.08;;;14.70;95.10;;;;;;5012660;28;20042;-73
2022/09/03 06:11:44;;;;;;;2.97;1.80;;;14.70;94.80;;;;;;4995358;28;20057;-74
2022/09/03 06:14:12;;;;;;;2.78;2.50;;;14.80;94.70;;;;;;5012372;28;20057;-75
2022/09/03 06:16:44;;;;;;;2.00;1.73;;;14.90;94.70;;;;;;5012530;28;20124;-74
2022/09/03 06:19:12;;;;;;;2.00;1.80;;;14.90;94.50;;;;;;5012356;28;20115;-74
2022/09/03 06:21:41;;;;;;;1.98;1.88;;;14.90;94.40;;;;;;5012842;28;20108;-74
2022/09/03 06:24:17;;;;;;;4.03;1.80;;;15.00;94.50;;;;;;4995329;28;20531;-74
2022/09/03 06:26:44;;;;;;;2.33;1.83;;;15.00;94.50;;;;;;5012413;28;20096;-74
2022/09/03 06:29:10;;;;;;;2.58;1.75;;;15.00;94.50;;;;;;5012222;28;20053;-75
2022/09/03 06:31:36;;;;;;;2.22;1.75;;;15.10;94.40;;;;;;5012231;28;20060;-74
2022/09/03 06:34:02;;;;;;;3.13;2.50;;;15.20;94.30;;;;;;5012203;28;20050;-74
2022/09/03 06:36:27;;;;;;;2.03;1.92;;;15.30;94.60;;;;;;5012208;28;20049;-73
2022/09/03 06:38:55;;;;;;;2.88;2.30;;;15.40;94.20;;;;;;5012110;28;20187;-73
2022/09/03 06:41:26;;;;;;;2.25;1.88;;;15.50;94.10;;;;;;4995256;28;20062;-73
2022/09/03 06:44:01;;;;;;;2.30;2.00;;;15.60;93.90;;;;;;5012613;28;20132;-73
2022/09/03 06:46:26;;;;;;;3.33;1.90;;;15.60;93.70;;;;;;5013384;28;20057;-74
2022/09/03 06:48:53;;;;;;;2.72;2.20;;;15.70;93.50;;;;;;5015841;28;20569;-74
2022/09/03 06:51:24;;;;;;;4.88;2.40;;;15.80;93.40;;;;;;5015764;28;20562;-74
2022/09/03 06:53:53;;;;;;;1.65;1.55;;;15.90;93.30;;;;;;4998550;28;20037;-74
2022/09/03 06:56:25;;;;;;;2.85;2.13;;;16.10;93.10;;;;;;5015919;28;20148;-74
2022/09/03 06:58:55;;;;;;;2.22;2.10;;;16.20;92.90;;;;;;5015906;28;20050;-74
2022/09/03 07:01:29;;;;;;;2.50;2.22;;;16.30;92.80;;;;;;5016036;28;20465;-75
2022/09/03 07:03:57;;;;;;;2.60;1.77;;;16.40;92.60;;;;;;5016014;28;20065;-74
2022/09/03 07:06:26;;;;;;;1.90;1.80;;;16.50;92.40;;;;;;5015690;28;20113;-74
2022/09/03 07:08:53;;;;;;;4.05;1.92;;;16.70;92.40;;;;;;5015321;28;20450;-74
2022/09/03 07:11:25;;;;;;;1.75;1.65;;;16.80;92.50;;;;;;5015368;28;20076;-75
2022/09/03 07:13:52;;;;;;;2.10;1.83;;;17.00;92.70;;;;;;5015649;28;20073;-74
2022/09/03 07:16:23;;;;;;;3.03;1.45;;;17.30;93.00;;;;;;5015342;28;20049;-76
2022/09/03 07:18:49;;;;;;;2.22;2.00;;;17.50;93.20;;;;;;5015582;28;20418;-74
2022/09/03 07:21:17;;;;;;;1.95;1.60;;;18.40;92.10;;;;;;5015028;28;20188;-74
2022/09/03 07:23:44;;;;;;;4.20;2.03;;;19.90;90.50;;;;;;4997832;28;20065;-74
2022/09/03 07:26:21;;;;;;;1.98;1.83;;;21.30;87.90;;;;;;5015125;28;20045;-74
2022/09/03 07:28:48;;;;;;;3.70;1.75;;;22.40;84.50;;;;;;5015571;28;20049;-75
2022/09/03 07:31:18;;;;;;;1.58;1.48;;;23.10;82.30;;;;;;5015032;28;20053;-75
2022/09/03 07:33:45;;;;;;;1.77;1.67;;;23.60;80.00;;;;;;5015034;28;20058;-73
2022/09/03 07:36:14;;;;;;;1.85;1.65;;;24.50;78.90;;;;;;5014963;28;20085;-73
2022/09/03 07:38:43;;;;;;;2.05;1.63;;;25.20;77.70;;;;;;5014956;28;20057;-73
2022/09/03 07:41:10;;;;;;;4.65;1.85;;;25.60;75.90;;;;;;5014807;28;20081;-73
2022/09/03 07:43:47;;;;;;;1.83;1.70;;;25.80;74.50;;;;;;5015177;28;20065;-74
2022/09/03 07:46:19;;;;;;;4.82;1.83;;;26.00;72.20;;;;;;5014547;28;20459;-74
2022/09/03 07:48:47;;;;;;;1.70;1.40;;;26.00;72.00;;;;;;4997274;28;20092;-74
2022/09/03 07:51:14;;;;;;;1.52;1.42;;;26.30;72.00;;;;;;5013470;28;20038;-74
2022/09/03 07:53:39;;;;;;;2.92;1.77;;;26.80;72.00;;;;;;5013460;28;20057;-74
2022/09/03 07:56:07;;;;;;;2.72;1.50;;;27.20;71.50;;;;;;4996757;28;20046;-74
2022/09/03 07:58:34;;;;;;;3.05;1.60;;;27.30;70.90;;;;;;5014280;28;20049;-72
2022/09/03 08:01:16;;;;;;;3.70;1.77;;;27.60;70.40;;;;;;5015077;28;20043;-73
2022/09/03 08:03:43;;;;;;;3.63;1.55;;;27.60;67.00;;;;;;5014380;28;20050;-74
2022/09/03 08:06:10;;;;;;;1.85;1.50;;;27.80;69.10;;;;;;5014466;28;20104;-74
2022/09/03 08:08:36;;;;;;;4.35;1.92;;;27.90;67.90;;;;;;4997335;28;20050;-73
2022/09/03 08:11:10;;;;;;;3.78;1.52;;;27.70;67.80;;;;;;5014429;28;20513;-73
2022/09/03 08:13:42;;;;;;;1.45;1.27;;;28.00;67.80;;;;;;4997273;28;20104;-73
2022/09/03 08:16:09;;;;;;;1.30;1.20;;;27.90;66.70;;;;;;5014561;28;20089;-73
2022/09/03 08:18:38;;;;;;;1.85;1.75;;;28.00;66.80;;;;;;5014521;28;20050;-73
2022/09/03 08:21:16;;;;;;;3.10;1.40;;;28.20;66.90;;;;;;5013274;28;20057;-75
2022/09/03 08:23:44;;;;;;;2.00;1.35;;;28.40;64.60;;;;;;5014584;28;20120;-74
2022/09/03 08:26:10;;;;;;;6.22;1.77;;;28.40;65.60;;;;;;5014628;28;20046;-73
2022/09/03 08:28:36;;;;;;;1.90;1.80;;;28.70;66.00;;;;;;5014534;28;20052;-72
2022/09/03 08:31:11;;;;;;;3.72;1.10;;;28.90;65.40;;;;;;5014286;28;20046;-75
2022/09/03 08:33:41;;;;;;;3.25;1.83;;;28.90;64.80;;;;;;5014376;28;20050;-77
2022/09/03 08:36:24;;;;;;;3.05;1.45;;;28.70;62.70;;;;;;5014253;28;20046;-77
2022/09/03 08:38:54;;;;;;;6.35;1.52;;;28.50;63.10;;;;;;5014688;28;20133;-77
2022/09/03 08:41:29;;;;;;;3.20;1.80;;;28.60;64.30;;;;;;5014375;28;20061;-78
2022/09/03 08:44:13;;;;;;;5.25;1.77;;;29.00;64.00;;;;;;4997397;28;20077;-78
2022/09/03 08:46:50;;;;;;;9.30;1.40;;;29.10;62.50;;;;;;5013992;28;20042;-69
2022/09/03 08:49:26;;;;;;;5.47;1.52;;;29.00;63.80;;;;;;5013957;28;20375;-73
2022/09/03 08:51:55;;;;;;;3.67;1.73;;;29.20;63.50;;;;;;5014187;28;20113;-72
2022/09/03 08:54:25;;;;;;;2.30;1.30;;;29.30;62.50;;;;;;4996274;28;20049;-73
2022/09/03 08:56:52;;;;;;;1.73;1.20;;;29.00;62.30;;;;;;5014171;28;20428;-74
2022/09/03 08:59:20;;;;;;;2.05;1.20;;;29.10;62.70;;;;;;5013745;28;20080;-74
2022/09/03 09:02:13;;;;;;;3.55;1.40;;;29.00;62.40;;;;;;5013762;28;20061;-74
2022/09/03 09:05:04;;;;;;;2.45;1.30;;;29.00;61.70;;;;;;4996413;28;20061;-74
2022/09/03 09:08:19;;;;;;;4.15;1.70;;;29.10;61.90;;;;;;5014028;28;20052;-77
2022/09/03 09:10:47;;;;;;;3.25;1.33;;;29.10;61.70;;;;;;4995788;28;20037;-74
2022/09/03 09:13:15;;;;;;;2.78;1.13;;;29.20;62.20;;;;;;4996044;28;20053;-74
2022/09/03 09:15:53;;;;;;;4.70;1.38;;;29.40;61.60;;;;;;5013374;28;20099;-74
2022/09/03 09:18:37;;;;;;;3.08;1.48;;;29.40;61.70;;;;;;5013680;28;20069;-74
2022/09/03 09:21:14;;;;;;;1.80;1.02;;;29.50;61.50;;;;;;5012952;28;20057;-74
2022/09/03 09:23:48;;;;;;;2.78;1.55;;;29.60;61.00;;;;;;5013645;28;20096;-73
2022/09/03 09:26:23;;;;;;;1.88;1.23;;;29.60;60.40;;;;;;5013842;28;20104;-73
2022/09/03 09:29:02;;;;;;;1.52;1.23;;;29.60;60.60;;;;;;5012257;28;20084;-74
2022/09/03 09:31:29;;;;;;;1.98;1.42;;;29.50;60.50;;;;;;5013475;28;20057;-73
2022/09/03 09:34:02;;;;;;;3.15;1.05;;;29.80;61.00;;;;;;5013091;28;20049;-73
2022/09/03 09:36:28;;;;;;;6.50;1.70;;;29.60;60.80;;;;;;5013560;28;20057;-73
2022/09/03 09:38:55;;;;;;;1.77;1.20;;;29.50;59.90;;;;;;4996263;28;20074;-73
2022/09/03 09:41:22;;;;;;;3.97;1.25;;;29.40;60.60;;;;;;5013070;28;20046;-73
2022/09/03 09:44:00;;;;;;;3.42;1.30;;;29.60;60.70;;;;;;5013063;28;20058;-73
2022/09/03 09:46:35;;;;;;;1.90;1.20;;;29.70;60.40;;;;;;5013443;28;20042;-73
2022/09/03 09:49:01;;;;;;;3.85;1.23;;;29.60;59.60;;;;;;5013046;28;20208;-74
2022/09/03 09:51:32;;;;;;;2.97;1.65;;;29.50;59.60;;;;;;4995763;28;20528;-74
2022/09/03 09:54:18;;;;;;;2.60;1.13;;;29.80;59.80;;;;;;5013013;28;20056;-74
2022/09/03 09:56:46;;;;;;;2.03;1.00;;;30.00;59.00;;;;;;5012945;28;20050;-73
2022/09/03 09:59:16;;;;;;;2.90;1.05;;;30.40;59.70;;;;;;5012863;28;20050;-74
2022/09/03 10:01:43;;;;;;;1.58;1.33;;;30.60;59.00;;;;;;5011947;28;20037;-75
2022/09/03 10:04:26;;;;;;;1.63;1.20;;;30.40;58.80;;;;;;5012914;28;20053;-74
2022/09/03 10:07:12;;;;;;;2.30;1.40;;;30.50;58.60;;;;;;5013120;28;20045;-75
2022/09/03 10:09:38;;;;;;;2.60;0.98;;;30.30;57.90;;;;;;5013119;28;20046;-75
2022/09/03 10:12:22;;;;;;;4.95;1.45;;;30.20;58.10;;;;;;5013085;28;20053;-75
2022/09/03 10:15:10;;;;;;;2.67;1.25;;;30.20;58.10;;;;;;5013092;28;20053;-74
2022/09/03 10:17:56;;;;;;;1.30;1.20;;;30.20;58.00;;;;;;5012844;28;20127;-73
2022/09/03 10:20:50;;;;;;;2.67;1.23;;;30.40;57.80;;;;;;5012892;28;20061;-74
2022/09/03 10:23:21;;;;;;;3.63;1.20;;;30.60;57.60;;;;;;5016991;28;20390;-76
2022/09/03 10:26:09;;;;;;;2.83;1.15;;;30.80;57.60;;;;;;5016902;28;20046;-75
2022/09/03 10:28:40;;;;;;;1.40;1.13;;;30.80;57.10;;;;;;5016663;28;20481;-74
2022/09/03 10:31:30;;;;;;;3.10;1.60;;;30.90;57.20;;;;;;5016611;28;20084;-73
2022/09/03 10:34:17;;;;;;;2.08;1.02;;;31.20;56.60;;;;;;4999483;28;20086;-73
2022/09/03 10:36:49;;;;;;;2.22;0.95;;;31.40;56.70;;;;;;5017058;28;20050;-73
2022/09/03 10:39:20;;;;;;;1.25;0.95;;;31.60;57.10;;;;;;4999080;28;20061;-75
2022/09/03 10:42:05;;;;;;;1.58;1.25;;;31.70;56.60;;;;;;4999194;28;20049;-75
2022/09/03 10:44:34;;;;;;;1.85;1.00;;;31.50;56.20;;;;;;5016303;28;20112;-74
2022/09/03 10:46:59;;;;;;;3.60;1.73;;;31.00;56.40;;;;;;5016307;28;20054;-74
2022/09/03 10:50:07;;;;;;;1.05;0.90;;;30.40;56.40;;;;;;4998479;28;20046;-74
2022/09/03 10:52:43;;;;;;;11.18;2.40;;;29.60;56.20;;;;;;4998615;28;20076;-73
2022/09/03 10:55:37;;;;;;;4.82;1.58;;;28.60;56.60;;;;;;4998698;28;20050;-74
2022/09/03 10:58:55;;;;;;;1.73;1.05;;;27.70;56.80;;;;;;5015815;28;20042;-75
2022/09/03 11:01:32;;;;;;;2.42;1.30;;;27.10;57.50;;;;;;5000514;28;20208;-73
2022/09/03 11:04:06;;;;;;;1.95;1.10;;;26.80;57.30;;;;;;5016235;28;20108;-74
2022/09/03 11:06:45;;;;;;;4.40;2.13;;;26.60;57.60;;;;;;5015675;28;20057;-73
2022/09/03 11:09:39;;;;;;;1.83;1.20;;;26.40;57.40;;;;;;4998031;28;20054;-73
2022/09/03 11:12:16;;;;;;;3.13;1.38;;;26.20;57.50;;;;;;4997838;28;20061;-73
2022/09/03 11:14:47;;;;;;;1.20;1.10;;;26.10;57.50;;;;;;5015729;28;20085;-72
2022/09/03 11:17:24;;;;;;;5.80;1.30;;;25.90;57.10;;;;;;4981875;28;20046;-74
2022/09/03 11:20:02;;;;;;;1.42;1.10;;;25.90;57.60;;;;;;4997403;28;20057;-72
2022/09/03 11:22:29;;;;;;;1.65;1.33;;;25.90;57.50;;;;;;5015459;28;20053;-73
2022/09/03 11:25:01;;;;;;;3.45;1.55;;;25.90;57.40;;;;;;5015579;28;20103;-73
2022/09/03 11:27:34;;;;;;;1.60;1.30;;;25.90;57.50;;;;;;5015396;28;20088;-72
2022/09/03 11:29:59;;;;;;;2.22;1.75;;;25.90;57.40;;;;;;5015224;28;20077;-73
2022/09/03 11:32:57;;;;;;;1.85;1.20;;;25.90;57.20;;;;;;5013615;28;20057;-74
2022/09/03 11:35:37;;;;;;;1.30;1.10;;;25.90;57.60;;;;;;5015338;28;20498;-73
2022/09/03 11:38:19;;;;;;;2.97;1.08;;;25.80;57.10;;;;;;5015617;28;20127;-73
2022/09/03 11:41:03;;;;;;;3.42;1.45;;;25.90;57.50;;;;;;5015201;28;20049;-74
2022/09/03 11:43:33;;;;;;;1.98;1.17;;;25.90;57.30;;;;;;4998403;28;20108;-73
2022/09/03 11:46:11;;;;;;;3.55;1.33;;;25.90;57.60;;;;;;5015187;28;20057;-72
2022/09/03 11:48:46;;;;;;;2.05;1.52;;;26.00;56.80;;;;;;5014625;28;20449;-73
2022/09/03 11:51:17;;;;;;;2.15;1.30;;;25.90;56.70;;;;;;4997055;28;20128;-74
2022/09/03 11:53:53;;;;;;;1.92;1.00;;;26.00;56.90;;;;;;5014882;28;20064;-72
2022/09/03 11:56:19;;;;;;;2.33;1.08;;;25.90;57.20;;;;;;5015501;28;20111;-74
2022/09/03 11:58:45;;;;;;;2.08;0.98;;;26.00;57.00;;;;;;5015143;28;20045;-75
2022/09/03 12:01:14;;;;;;;1.08;1.00;;;26.00;57.10;;;;;;5014833;28;20104;-74
2022/09/03 12:03:44;;;;;;;1.35;1.10;;;26.00;57.10;;;;;;4997268;28;20050;-74
2022/09/03 12:06:47;;;;;;;3.30;1.33;;;25.90;56.60;;;;;;5014671;28;20046;-74
2022/09/03 12:09:34;;;;;;;6.25;1.50;;;25.90;56.60;;;;;;5014838;28;20149;-73
2022/09/03 12:12:08;;;;;;;1.50;1.40;;;25.90;56.50;;;;;;5014579;28;20054;-73
2022/09/03 12:15:13;;;;;;;2.28;1.95;;;26.00;56.50;;;;;;5014429;28;20496;-73
2022/09/03 12:20:41;;;;;;;2.00;1.73;;;26.00;56.90;;;;;;5014246;28;20057;-73
2022/09/03 12:23:10;;;;;;;2.05;1.02;;;26.00;56.80;;;;;;5014305;28;20137;-74
2022/09/03 12:25:46;;;;;;;5.07;1.55;;;26.00;56.80;;;;;;5014310;28;20050;-74
2022/09/03 12:28:22;;;;;;;1.30;1.02;;;25.90;57.00;;;;;;5014790;28;20064;-73
2022/09/03 12:30:52;;;;;;;1.98;1.30;;;25.90;56.70;;;;;;5014661;28;20041;-73
2022/09/03 12:33:19;;;;;;;2.17;1.00;;;26.00;56.70;;;;;;5014050;28;20057;-73
2022/09/03 12:35:59;;;;;;;8.15;1.23;;;26.10;56.80;;;;;;5014108;28;20054;-73
2022/09/03 12:38:28;;;;;;;1.35;1.20;;;26.20;56.90;;;;;;5013834;28;20564;-73
2022/09/03 12:40:54;;;;;;;2.33;1.20;;;26.20;56.80;;;;;;5013952;28;20053;-73
2022/09/03 12:43:26;;;;;;;2.13;1.15;;;26.30;56.80;;;;;;5013611;28;20092;-73
2022/09/03 12:45:53;;;;;;;2.00;1.20;;;26.40;56.60;;;;;;5013637;28;20478;-75
2022/09/03 12:48:19;;;;;;;2.35;1.20;;;26.40;56.60;;;;;;4996287;28;20129;-74
2022/09/03 12:50:47;;;;;;;2.53;1.30;;;26.40;56.50;;;;;;5014334;28;20057;-73
2022/09/03 12:53:25;;;;;;;4.10;1.30;;;26.30;56.60;;;;;;5013720;28;20053;-72
2022/09/03 12:55:53;;;;;;;2.38;1.30;;;26.30;56.50;;;;;;5013890;28;20116;-74
2022/09/03 12:58:30;;;;;;;3.75;1.20;;;26.30;56.50;;;;;;5013940;28;20454;-74
2022/09/03 13:01:13;;;;;;;1.85;1.00;;;26.30;56.40;;;;;;5013699;28;20045;-73
2022/09/03 13:04:10;;;;;;;4.00;1.33;;;26.30;56.50;;;;;;5013616;28;20081;-75
2022/09/03 13:06:48;;;;;;;3.38;1.00;;;26.30;56.60;;;;;;5005312;28;20138;-73
2022/09/03 13:09:19;;;;;;;2.35;1.33;;;26.40;56.70;;;;;;4995787;28;20054;-73
2022/09/03 13:11:45;;;;;;;1.25;1.00;;;26.40;56.40;;;;;;5013817;28;20053;-73
2022/09/03 13:14:13;;;;;;;1.75;0.90;;;26.40;56.50;;;;;;5013361;28;20374;-73
2022/09/03 13:16:50;;;;;;;4.03;1.30;;;26.30;56.60;;;;;;5013699;28;20116;-74
2022/09/03 13:19:46;;;;;;;10.18;1.42;;;26.40;56.40;;;;;;5013638;28;20421;-73
2022/09/03 13:22:33;;;;;;;1.35;1.25;;;26.50;56.70;;;;;;5013867;28;20104;-73